sensor_id;sensor_type;location;lat;lon;timestamp;temperature;humidity
18041;DHT22;9145;48.588;9.250;2023-02-28T00:00:11;0.30;99.90
18041;DHT22;9145;48.588;9.250;2023-02-28T00:02:40;0.20;99.90
18041;DHT22;9145;48.588;9.250;2023-02-28T00:05:08;0.30;99.90
18041;DHT22;9145;48.588;9.250;2023-02-28T00:07:36;0.20;99.90
18041;DHT22;9145;48.588;9.250;2023-02-28T00:10:05;0.10;99.90
18041;DHT22;9145;48.588;9.250;2023-02-28T00:12:33;0.10;99.90
18041;DHT22;9145;48.588;9.250;2023-02-28T00:15:00;0.10;99.90
18041;DHT22;9145;48.588;9.250;2023-02-28T00:17:27;0.00;99.90
18041;DHT22;9145;48.588;9.250;2023-02-28T00:19:54;0.10;99.90
18041;DHT22;9145;48.588;9.250;2023-02-28T00:22:21;0.00;99.90
18041;DHT22;9145;48.588;9.250;2023-02-28T00:24:48;0.00;99.90
18041;DHT22;9145;48.588;9.250;2023-02-28T00:27:16;0.00;99.90
18041;DHT22;9145;48.588;9.250;2023-02-28T00:29:43;-0.10;99.90
18041;DHT22;9145;48.588;9.250;2023-02-28T00:32:09;-0.10;99.90
18041;DHT22;9145;48.588;9.250;2023-02-28T00:34:36;-0.10;99.90
18041;DHT22;9145;48.588;9.250;2023-02-28T00:37:04;-0.10;99.90
18041;DHT22;9145;48.588;9.250;2023-02-28T00:39:33;-0.20;99.90
18041;DHT22;9145;48.588;9.250;2023-02-28T00:42:01;-0.20;99.90
18041;DHT22;9145;48.588;9.250;2023-02-28T00:44:29;-0.20;99.90
18041;DHT22;9145;48.588;9.250;2023-02-28T00:46:56;-0.20;99.90
18041;DHT22;9145;48.588;9.250;2023-02-28T00:49:24;-0.20;99.90
18041;DHT22;9145;48.588;9.250;2023-02-28T00:51:51;-0.10;99.90
18041;DHT22;9145;48.588;9.250;2023-02-28T00:54:18;-0.20;99.90
18041;DHT22;9145;48.588;9.250;2023-02-28T00:56:45;-0.10;99.90
18041;DHT22;9145;48.588;9.250;2023-02-28T00:59:13;-0.10;99.90
18041;DHT22;9145;48.588;9.250;2023-02-28T01:01:41;-0.10;99.90
18041;DHT22;9145;48.588;9.250;2023-02-28T01:04:09;-0.10;99.90
18041;DHT22;9145;48.588;9.250;2023-02-28T01:06:36;-0.10;99.90
18041;DHT22;9145;48.588;9.250;2023-02-28T01:09:03;0.00;99.90
18041;DHT22;9145;48.588;9.250;2023-02-28T01:11:31;0.00;99.90
18041;DHT22;9145;48.588;9.250;2023-02-28T01:13:58;-0.10;99.90
18041;DHT22;9145;48.588;9.250;2023-02-28T01:16:25;0.00;99.90
18041;DHT22;9145;48.588;9.250;2023-02-28T01:18:53;0.00;99.90
18041;DHT22;9145;48.588;9.250;2023-02-28T01:21:21;-0.10;99.90
18041;DHT22;9145;48.588;9.250;2023-02-28T01:23:49;-0.20;99.90
18041;DHT22;9145;48.588;9.250;2023-02-28T01:26:17;-0.20;99.90
18041;DHT22;9145;48.588;9.250;2023-02-28T01:28:44;-0.20;99.90
18041;DHT22;9145;48.588;9.250;2023-02-28T01:31:12;-0.20;99.90
18041;DHT22;9145;48.588;9.250;2023-02-28T01:33:39;-0.10;99.90
18041;DHT22;9145;48.588;9.250;2023-02-28T01:36:11;-0.20;99.90
18041;DHT22;9145;48.588;9.250;2023-02-28T01:38:38;-0.10;99.90
18041;DHT22;9145;48.588;9.250;2023-02-28T01:41:05;-0.10;99.90
18041;DHT22;9145;48.588;9.250;2023-02-28T01:43:53;-0.10;99.90
18041;DHT22;9145;48.588;9.250;2023-02-28T01:46:20;0.00;99.90
18041;DHT22;9145;48.588;9.250;2023-02-28T01:48:54;0.00;99.90
18041;DHT22;9145;48.588;9.250;2023-02-28T01:51:26;0.10;99.90
18041;DHT22;9145;48.588;9.250;2023-02-28T01:53:57;-0.10;99.90
18041;DHT22;9145;48.588;9.250;2023-02-28T01:56:29;-0.10;99.90
18041;DHT22;9145;48.588;9.250;2023-02-28T01:58:57;-0.10;99.90
18041;DHT22;9145;48.588;9.250;2023-02-28T02:01:25;-0.10;99.90
18041;DHT22;9145;48.588;9.250;2023-02-28T02:03:55;-0.10;99.90
18041;DHT22;9145;48.588;9.250;2023-02-28T02:06:25;0.00;99.90
18041;DHT22;9145;48.588;9.250;2023-02-28T02:08:54;0.00;99.90
18041;DHT22;9145;48.588;9.250;2023-02-28T02:11:22;-0.10;99.90
18041;DHT22;9145;48.588;9.250;2023-02-28T02:16:59;-0.10;99.90
18041;DHT22;9145;48.588;9.250;2023-02-28T02:19:46;-0.10;99.90
18041;DHT22;9145;48.588;9.250;2023-02-28T02:22:35;-0.10;99.90
18041;DHT22;9145;48.588;9.250;2023-02-28T02:25:14;-0.10;99.90
18041;DHT22;9145;48.588;9.250;2023-02-28T02:28:17;-0.10;99.90
18041;DHT22;9145;48.588;9.250;2023-02-28T02:31:23;-0.20;99.90
18041;DHT22;9145;48.588;9.250;2023-02-28T02:37:15;-0.20;99.90
18041;DHT22;9145;48.588;9.250;2023-02-28T02:39:50;-0.10;99.90
18041;DHT22;9145;48.588;9.250;2023-02-28T02:42:23;-0.20;99.90
18041;DHT22;9145;48.588;9.250;2023-02-28T02:44:57;-0.30;99.90
18041;DHT22;9145;48.588;9.250;2023-02-28T02:47:27;-0.30;99.90
18041;DHT22;9145;48.588;9.250;2023-02-28T02:49:56;-0.30;99.90
18041;DHT22;9145;48.588;9.250;2023-02-28T02:52:31;-0.30;99.90
18041;DHT22;9145;48.588;9.250;2023-02-28T02:55:02;-0.20;99.90
18041;DHT22;9145;48.588;9.250;2023-02-28T02:57:32;-0.10;99.90
18041;DHT22;9145;48.588;9.250;2023-02-28T03:00:02;-0.10;99.90
18041;DHT22;9145;48.588;9.250;2023-02-28T03:02:30;-0.10;99.90
18041;DHT22;9145;48.588;9.250;2023-02-28T03:05:02;0.00;99.90
18041;DHT22;9145;48.588;9.250;2023-02-28T03:07:33;0.00;99.90
18041;DHT22;9145;48.588;9.250;2023-02-28T03:10:00;-0.10;99.90
18041;DHT22;9145;48.588;9.250;2023-02-28T03:12:32;-0.10;99.90
18041;DHT22;9145;48.588;9.250;2023-02-28T03:15:09;0.00;99.90
18041;DHT22;9145;48.588;9.250;2023-02-28T03:17:54;0.00;99.90
18041;DHT22;9145;48.588;9.250;2023-02-28T03:20:32;0.00;99.90
18041;DHT22;9145;48.588;9.250;2023-02-28T03:23:13;0.00;99.90
18041;DHT22;9145;48.588;9.250;2023-02-28T03:25:54;0.10;99.90
18041;DHT22;9145;48.588;9.250;2023-02-28T03:28:31;0.10;99.90
18041;DHT22;9145;48.588;9.250;2023-02-28T03:31:02;0.00;99.90
18041;DHT22;9145;48.588;9.250;2023-02-28T03:33:31;-0.10;99.90
18041;DHT22;9145;48.588;9.250;2023-02-28T03:36:02;0.00;99.90
18041;DHT22;9145;48.588;9.250;2023-02-28T03:38:35;-0.10;99.90
18041;DHT22;9145;48.588;9.250;2023-02-28T03:41:08;0.00;99.90
18041;DHT22;9145;48.588;9.250;2023-02-28T03:43:40;0.00;99.90
18041;DHT22;9145;48.588;9.250;2023-02-28T03:46:10;0.00;99.90
18041;DHT22;9145;48.588;9.250;2023-02-28T03:48:41;-0.10;99.90
18041;DHT22;9145;48.588;9.250;2023-02-28T03:51:12;-0.10;99.90
18041;DHT22;9145;48.588;9.250;2023-02-28T03:53:44;-0.10;99.90
18041;DHT22;9145;48.588;9.250;2023-02-28T03:56:14;0.10;99.90
18041;DHT22;9145;48.588;9.250;2023-02-28T03:58:47;0.10;99.90
18041;DHT22;9145;48.588;9.250;2023-02-28T04:01:18;0.20;99.90
18041;DHT22;9145;48.588;9.250;2023-02-28T04:03:46;0.20;99.90
18041;DHT22;9145;48.588;9.250;2023-02-28T04:06:16;0.30;99.90
18041;DHT22;9145;48.588;9.250;2023-02-28T04:08:45;0.30;99.90
18041;DHT22;9145;48.588;9.250;2023-02-28T04:11:19;0.40;99.90
18041;DHT22;9145;48.588;9.250;2023-02-28T04:13:47;0.40;99.90
18041;DHT22;9145;48.588;9.250;2023-02-28T04:16:14;0.30;99.90
18041;DHT22;9145;48.588;9.250;2023-02-28T04:18:41;0.30;99.90
18041;DHT22;9145;48.588;9.250;2023-02-28T04:21:09;0.40;99.90
18041;DHT22;9145;48.588;9.250;2023-02-28T04:23:36;0.30;99.90
18041;DHT22;9145;48.588;9.250;2023-02-28T04:26:04;0.30;99.90
18041;DHT22;9145;48.588;9.250;2023-02-28T04:28:32;0.30;99.90
18041;DHT22;9145;48.588;9.250;2023-02-28T04:31:00;0.30;99.90
18041;DHT22;9145;48.588;9.250;2023-02-28T04:33:27;0.20;99.90
18041;DHT22;9145;48.588;9.250;2023-02-28T04:36:01;0.20;99.90
18041;DHT22;9145;48.588;9.250;2023-02-28T04:38:29;0.30;99.90
18041;DHT22;9145;48.588;9.250;2023-02-28T04:40:57;0.20;99.90
18041;DHT22;9145;48.588;9.250;2023-02-28T04:43:26;0.20;99.90
18041;DHT22;9145;48.588;9.250;2023-02-28T04:45:53;0.20;99.90
18041;DHT22;9145;48.588;9.250;2023-02-28T04:48:22;0.20;99.90
18041;DHT22;9145;48.588;9.250;2023-02-28T04:50:49;0.20;99.90
18041;DHT22;9145;48.588;9.250;2023-02-28T04:53:15;0.20;99.90
18041;DHT22;9145;48.588;9.250;2023-02-28T04:55:42;0.40;99.90
18041;DHT22;9145;48.588;9.250;2023-02-28T04:58:09;0.40;99.90
18041;DHT22;9145;48.588;9.250;2023-02-28T05:00:37;0.40;99.90
18041;DHT22;9145;48.588;9.250;2023-02-28T05:03:04;0.50;99.90
18041;DHT22;9145;48.588;9.250;2023-02-28T05:05:31;0.50;99.90
18041;DHT22;9145;48.588;9.250;2023-02-28T05:07:58;0.40;99.90
18041;DHT22;9145;48.588;9.250;2023-02-28T05:10:25;0.30;99.90
18041;DHT22;9145;48.588;9.250;2023-02-28T05:12:52;0.30;99.90
18041;DHT22;9145;48.588;9.250;2023-02-28T05:15:19;0.30;99.90
18041;DHT22;9145;48.588;9.250;2023-02-28T05:17:47;0.30;99.90
18041;DHT22;9145;48.588;9.250;2023-02-28T05:20:13;0.30;99.90
18041;DHT22;9145;48.588;9.250;2023-02-28T05:22:41;0.40;99.90
18041;DHT22;9145;48.588;9.250;2023-02-28T05:25:09;0.30;99.90
18041;DHT22;9145;48.588;9.250;2023-02-28T05:27:37;0.30;99.90
18041;DHT22;9145;48.588;9.250;2023-02-28T05:30:05;0.40;99.90
18041;DHT22;9145;48.588;9.250;2023-02-28T05:32:35;0.40;99.90
18041;DHT22;9145;48.588;9.250;2023-02-28T05:35:04;0.40;99.90
18041;DHT22;9145;48.588;9.250;2023-02-28T05:37:31;0.40;99.90
18041;DHT22;9145;48.588;9.250;2023-02-28T05:39:58;0.40;99.90
18041;DHT22;9145;48.588;9.250;2023-02-28T05:42:25;0.40;99.90
18041;DHT22;9145;48.588;9.250;2023-02-28T05:44:51;0.50;99.90
18041;DHT22;9145;48.588;9.250;2023-02-28T05:47:18;0.50;99.90
18041;DHT22;9145;48.588;9.250;2023-02-28T05:49:45;0.50;99.90
18041;DHT22;9145;48.588;9.250;2023-02-28T05:52:13;0.50;99.90
18041;DHT22;9145;48.588;9.250;2023-02-28T05:54:40;0.50;99.90
18041;DHT22;9145;48.588;9.250;2023-02-28T05:57:07;0.60;99.90
18041;DHT22;9145;48.588;9.250;2023-02-28T05:59:34;0.60;99.90
18041;DHT22;9145;48.588;9.250;2023-02-28T06:02:05;0.50;99.90
18041;DHT22;9145;48.588;9.250;2023-02-28T06:04:32;0.60;99.90
18041;DHT22;9145;48.588;9.250;2023-02-28T06:06:59;0.60;99.90
18041;DHT22;9145;48.588;9.250;2023-02-28T06:09:28;0.50;99.90
18041;DHT22;9145;48.588;9.250;2023-02-28T06:11:57;0.50;99.90
18041;DHT22;9145;48.588;9.250;2023-02-28T06:14:24;0.50;99.90
18041;DHT22;9145;48.588;9.250;2023-02-28T06:16:51;0.50;99.90
18041;DHT22;9145;48.588;9.250;2023-02-28T06:19:17;0.60;99.90
18041;DHT22;9145;48.588;9.250;2023-02-28T06:21:44;0.60;99.90
18041;DHT22;9145;48.588;9.250;2023-02-28T06:24:11;0.50;99.90
18041;DHT22;9145;48.588;9.250;2023-02-28T06:26:39;0.50;99.90
18041;DHT22;9145;48.588;9.250;2023-02-28T06:29:06;0.50;99.90
18041;DHT22;9145;48.588;9.250;2023-02-28T06:31:33;0.60;99.90
18041;DHT22;9145;48.588;9.250;2023-02-28T06:34:00;0.60;99.90
18041;DHT22;9145;48.588;9.250;2023-02-28T06:36:27;0.60;99.90
18041;DHT22;9145;48.588;9.250;2023-02-28T06:38:54;0.60;99.90
18041;DHT22;9145;48.588;9.250;2023-02-28T06:41:22;0.60;99.90
18041;DHT22;9145;48.588;9.250;2023-02-28T06:43:51;0.60;99.90
18041;DHT22;9145;48.588;9.250;2023-02-28T06:46:18;0.70;99.90
18041;DHT22;9145;48.588;9.250;2023-02-28T06:48:46;0.70;99.90
18041;DHT22;9145;48.588;9.250;2023-02-28T06:51:15;0.60;99.90
18041;DHT22;9145;48.588;9.250;2023-02-28T06:53:42;0.70;99.90
18041;DHT22;9145;48.588;9.250;2023-02-28T06:56:10;0.80;99.90
18041;DHT22;9145;48.588;9.250;2023-02-28T06:58:38;0.70;99.90
18041;DHT22;9145;48.588;9.250;2023-02-28T07:01:07;0.70;99.90
18041;DHT22;9145;48.588;9.250;2023-02-28T07:03:35;0.70;99.90
18041;DHT22;9145;48.588;9.250;2023-02-28T07:06:02;0.80;99.90
18041;DHT22;9145;48.588;9.250;2023-02-28T07:08:29;0.80;99.90
18041;DHT22;9145;48.588;9.250;2023-02-28T07:10:57;0.80;99.90
18041;DHT22;9145;48.588;9.250;2023-02-28T07:13:23;0.80;99.90
18041;DHT22;9145;48.588;9.250;2023-02-28T07:15:54;0.80;99.90
18041;DHT22;9145;48.588;9.250;2023-02-28T07:18:23;0.90;99.90
18041;DHT22;9145;48.588;9.250;2023-02-28T07:20:50;0.90;99.90
18041;DHT22;9145;48.588;9.250;2023-02-28T07:23:17;0.80;99.90
18041;DHT22;9145;48.588;9.250;2023-02-28T07:25:44;0.70;99.90
18041;DHT22;9145;48.588;9.250;2023-02-28T07:28:12;0.70;99.90
18041;DHT22;9145;48.588;9.250;2023-02-28T07:30:39;0.70;99.90
18041;DHT22;9145;48.588;9.250;2023-02-28T07:33:06;0.90;99.90
18041;DHT22;9145;48.588;9.250;2023-02-28T07:35:34;0.90;99.90
18041;DHT22;9145;48.588;9.250;2023-02-28T07:38:01;0.90;99.90
18041;DHT22;9145;48.588;9.250;2023-02-28T07:40:28;1.00;99.90
18041;DHT22;9145;48.588;9.250;2023-02-28T07:42:55;1.00;99.90
18041;DHT22;9145;48.588;9.250;2023-02-28T07:45:22;1.10;99.90
18041;DHT22;9145;48.588;9.250;2023-02-28T07:47:48;1.20;99.90
18041;DHT22;9145;48.588;9.250;2023-02-28T07:50:15;1.20;99.90
18041;DHT22;9145;48.588;9.250;2023-02-28T07:52:44;1.20;99.90
18041;DHT22;9145;48.588;9.250;2023-02-28T07:55:10;1.20;99.90
18041;DHT22;9145;48.588;9.250;2023-02-28T07:57:39;1.30;99.90
18041;DHT22;9145;48.588;9.250;2023-02-28T08:00:09;1.20;99.90
18041;DHT22;9145;48.588;9.250;2023-02-28T08:02:36;1.30;99.90
18041;DHT22;9145;48.588;9.250;2023-02-28T08:05:04;1.20;99.90
18041;DHT22;9145;48.588;9.250;2023-02-28T08:07:31;1.30;99.90
18041;DHT22;9145;48.588;9.250;2023-02-28T08:09:59;1.30;99.90
18041;DHT22;9145;48.588;9.250;2023-02-28T08:12:26;1.30;99.90
18041;DHT22;9145;48.588;9.250;2023-02-28T08:14:53;1.40;99.90
18041;DHT22;9145;48.588;9.250;2023-02-28T08:17:20;1.50;99.90
18041;DHT22;9145;48.588;9.250;2023-02-28T08:19:47;1.60;99.90
18041;DHT22;9145;48.588;9.250;2023-02-28T08:22:14;1.60;99.90
18041;DHT22;9145;48.588;9.250;2023-02-28T08:24:41;1.60;99.90
18041;DHT22;9145;48.588;9.250;2023-02-28T08:27:10;1.70;99.90
18041;DHT22;9145;48.588;9.250;2023-02-28T08:29:37;1.70;99.90
18041;DHT22;9145;48.588;9.250;2023-02-28T08:32:04;1.70;99.90
18041;DHT22;9145;48.588;9.250;2023-02-28T08:34:31;1.70;99.90
18041;DHT22;9145;48.588;9.250;2023-02-28T08:36:58;1.80;99.90
18041;DHT22;9145;48.588;9.250;2023-02-28T08:39:25;1.80;99.90
18041;DHT22;9145;48.588;9.250;2023-02-28T08:41:52;1.90;99.90
18041;DHT22;9145;48.588;9.250;2023-02-28T08:44:20;2.00;99.90
18041;DHT22;9145;48.588;9.250;2023-02-28T08:46:47;2.00;99.90
18041;DHT22;9145;48.588;9.250;2023-02-28T08:49:13;2.00;99.90
18041;DHT22;9145;48.588;9.250;2023-02-28T08:51:41;2.10;99.90
18041;DHT22;9145;48.588;9.250;2023-02-28T08:54:08;2.10;99.90
18041;DHT22;9145;48.588;9.250;2023-02-28T08:56:38;2.10;99.90
18041;DHT22;9145;48.588;9.250;2023-02-28T08:59:05;2.10;99.90
18041;DHT22;9145;48.588;9.250;2023-02-28T09:01:33;2.10;99.90
18041;DHT22;9145;48.588;9.250;2023-02-28T09:04:01;2.20;99.90
18041;DHT22;9145;48.588;9.250;2023-02-28T09:06:28;2.30;99.90
18041;DHT22;9145;48.588;9.250;2023-02-28T09:08:57;2.30;99.90
18041;DHT22;9145;48.588;9.250;2023-02-28T09:11:25;2.40;99.90
18041;DHT22;9145;48.588;9.250;2023-02-28T09:13:52;2.40;99.90
18041;DHT22;9145;48.588;9.250;2023-02-28T09:16:22;2.40;99.90
18041;DHT22;9145;48.588;9.250;2023-02-28T09:18:50;2.40;99.90
18041;DHT22;9145;48.588;9.250;2023-02-28T09:21:18;2.40;99.90
18041;DHT22;9145;48.588;9.250;2023-02-28T09:23:46;2.50;99.90
18041;DHT22;9145;48.588;9.250;2023-02-28T09:26:15;2.50;99.90
18041;DHT22;9145;48.588;9.250;2023-02-28T09:28:42;2.50;99.90
18041;DHT22;9145;48.588;9.250;2023-02-28T09:31:12;2.60;99.90
18041;DHT22;9145;48.588;9.250;2023-02-28T09:33:40;2.60;99.90
18041;DHT22;9145;48.588;9.250;2023-02-28T09:36:08;2.60;99.90
18041;DHT22;9145;48.588;9.250;2023-02-28T09:38:35;2.70;99.90
18041;DHT22;9145;48.588;9.250;2023-02-28T09:41:08;2.70;99.90
18041;DHT22;9145;48.588;9.250;2023-02-28T09:43:39;2.80;99.90
18041;DHT22;9145;48.588;9.250;2023-02-28T09:46:16;2.80;99.90
18041;DHT22;9145;48.588;9.250;2023-02-28T09:48:47;2.90;99.90
18041;DHT22;9145;48.588;9.250;2023-02-28T09:51:28;3.00;99.90
18041;DHT22;9145;48.588;9.250;2023-02-28T09:53:56;3.10;99.90
18041;DHT22;9145;48.588;9.250;2023-02-28T09:56:25;3.20;99.90
18041;DHT22;9145;48.588;9.250;2023-02-28T09:58:56;3.20;99.90
18041;DHT22;9145;48.588;9.250;2023-02-28T10:01:28;3.10;99.90
18041;DHT22;9145;48.588;9.250;2023-02-28T10:03:57;3.10;99.90
18041;DHT22;9145;48.588;9.250;2023-02-28T10:06:30;3.20;99.90
18041;DHT22;9145;48.588;9.250;2023-02-28T10:09:02;3.20;99.90
18041;DHT22;9145;48.588;9.250;2023-02-28T10:11:32;3.30;99.90
18041;DHT22;9145;48.588;9.250;2023-02-28T10:14:01;3.30;99.90
18041;DHT22;9145;48.588;9.250;2023-02-28T10:16:34;3.30;99.90
18041;DHT22;9145;48.588;9.250;2023-02-28T10:19:05;3.50;99.90
18041;DHT22;9145;48.588;9.250;2023-02-28T10:21:38;3.50;99.90
18041;DHT22;9145;48.588;9.250;2023-02-28T10:24:19;3.60;99.90
18041;DHT22;9145;48.588;9.250;2023-02-28T10:26:47;3.70;99.90
18041;DHT22;9145;48.588;9.250;2023-02-28T10:29:15;3.80;99.90
18041;DHT22;9145;48.588;9.250;2023-02-28T10:31:42;3.90;99.90
18041;DHT22;9145;48.588;9.250;2023-02-28T10:34:12;4.20;99.90
18041;DHT22;9145;48.588;9.250;2023-02-28T10:36:41;4.30;99.90
18041;DHT22;9145;48.588;9.250;2023-02-28T10:39:35;4.30;99.90
18041;DHT22;9145;48.588;9.250;2023-02-28T10:42:02;4.40;99.90
18041;DHT22;9145;48.588;9.250;2023-02-28T10:44:29;4.50;99.90
18041;DHT22;9145;48.588;9.250;2023-02-28T10:46:56;4.50;99.90
18041;DHT22;9145;48.588;9.250;2023-02-28T10:49:24;4.70;99.90
18041;DHT22;9145;48.588;9.250;2023-02-28T10:51:55;4.90;99.90
18041;DHT22;9145;48.588;9.250;2023-02-28T10:54:26;5.10;99.90
18041;DHT22;9145;48.588;9.250;2023-02-28T10:57:17;5.20;99.90
18041;DHT22;9145;48.588;9.250;2023-02-28T10:59:45;5.30;99.90
18041;DHT22;9145;48.588;9.250;2023-02-28T11:02:32;5.40;99.90
18041;DHT22;9145;48.588;9.250;2023-02-28T11:04:59;5.40;99.90
18041;DHT22;9145;48.588;9.250;2023-02-28T11:07:27;5.20;99.90
18041;DHT22;9145;48.588;9.250;2023-02-28T11:09:55;5.20;99.90
18041;DHT22;9145;48.588;9.250;2023-02-28T11:12:26;5.20;99.90
18041;DHT22;9145;48.588;9.250;2023-02-28T11:14:56;5.00;99.90
18041;DHT22;9145;48.588;9.250;2023-02-28T11:17:26;4.90;99.90
18041;DHT22;9145;48.588;9.250;2023-02-28T11:19:56;5.00;99.90
18041;DHT22;9145;48.588;9.250;2023-02-28T11:22:26;5.00;99.90
18041;DHT22;9145;48.588;9.250;2023-02-28T11:24:57;5.00;99.90
18041;DHT22;9145;48.588;9.250;2023-02-28T11:27:33;5.00;99.90
18041;DHT22;9145;48.588;9.250;2023-02-28T11:30:26;5.00;99.90
18041;DHT22;9145;48.588;9.250;2023-02-28T11:32:54;5.10;99.90
18041;DHT22;9145;48.588;9.250;2023-02-28T11:35:24;5.20;99.90
18041;DHT22;9145;48.588;9.250;2023-02-28T11:37:53;5.20;99.90
18041;DHT22;9145;48.588;9.250;2023-02-28T11:40:28;5.30;99.90
18041;DHT22;9145;48.588;9.250;2023-02-28T11:43:10;5.20;99.90
18041;DHT22;9145;48.588;9.250;2023-02-28T11:46:01;5.40;99.90
18041;DHT22;9145;48.588;9.250;2023-02-28T11:48:37;5.70;99.90
18041;DHT22;9145;48.588;9.250;2023-02-28T11:51:15;5.90;99.90
18041;DHT22;9145;48.588;9.250;2023-02-28T11:53:53;6.30;99.90
18041;DHT22;9145;48.588;9.250;2023-02-28T11:56:31;6.60;99.90
18041;DHT22;9145;48.588;9.250;2023-02-28T11:59:21;7.00;99.90
18041;DHT22;9145;48.588;9.250;2023-02-28T12:02:14;7.30;99.90
18041;DHT22;9145;48.588;9.250;2023-02-28T12:04:51;7.60;99.90
18041;DHT22;9145;48.588;9.250;2023-02-28T12:07:27;7.80;99.90
18041;DHT22;9145;48.588;9.250;2023-02-28T12:10:01;8.00;99.90
18041;DHT22;9145;48.588;9.250;2023-02-28T12:12:40;8.00;99.90
18041;DHT22;9145;48.588;9.250;2023-02-28T12:15:33;7.80;99.90
18041;DHT22;9145;48.588;9.250;2023-02-28T12:18:17;7.70;99.90
18041;DHT22;9145;48.588;9.250;2023-02-28T12:20:52;7.20;99.90
18041;DHT22;9145;48.588;9.250;2023-02-28T12:23:43;7.20;99.90
18041;DHT22;9145;48.588;9.250;2023-02-28T12:26:16;7.00;99.90
18041;DHT22;9145;48.588;9.250;2023-02-28T12:28:50;7.00;99.90
18041;DHT22;9145;48.588;9.250;2023-02-28T12:31:21;7.00;99.90
18041;DHT22;9145;48.588;9.250;2023-02-28T12:33:52;6.80;99.90
18041;DHT22;9145;48.588;9.250;2023-02-28T12:36:20;6.70;99.90
18041;DHT22;9145;48.588;9.250;2023-02-28T12:38:53;6.70;99.90
18041;DHT22;9145;48.588;9.250;2023-02-28T12:41:26;6.80;99.90
18041;DHT22;9145;48.588;9.250;2023-02-28T12:43:58;7.20;99.90
18041;DHT22;9145;48.588;9.250;2023-02-28T12:46:30;7.50;99.90
18041;DHT22;9145;48.588;9.250;2023-02-28T12:49:02;7.90;99.90
18041;DHT22;9145;48.588;9.250;2023-02-28T12:51:32;8.10;99.90
18041;DHT22;9145;48.588;9.250;2023-02-28T12:54:05;8.20;99.90
18041;DHT22;9145;48.588;9.250;2023-02-28T12:56:38;8.30;99.90
18041;DHT22;9145;48.588;9.250;2023-02-28T12:59:17;8.50;99.90
18041;DHT22;9145;48.588;9.250;2023-02-28T13:02:00;8.20;99.90
18041;DHT22;9145;48.588;9.250;2023-02-28T13:04:43;8.30;99.90
18041;DHT22;9145;48.588;9.250;2023-02-28T13:07:40;8.50;99.90
18041;DHT22;9145;48.588;9.250;2023-02-28T13:10:13;8.80;99.90
18041;DHT22;9145;48.588;9.250;2023-02-28T13:12:48;8.30;99.90
18041;DHT22;9145;48.588;9.250;2023-02-28T13:15:22;8.20;99.90
18041;DHT22;9145;48.588;9.250;2023-02-28T13:17:52;8.30;99.90
18041;DHT22;9145;48.588;9.250;2023-02-28T13:20:21;8.50;99.90
18041;DHT22;9145;48.588;9.250;2023-02-28T13:22:49;8.50;99.90
18041;DHT22;9145;48.588;9.250;2023-02-28T13:34:40;9.00;99.90
18041;DHT22;9145;48.588;9.250;2023-02-28T13:37:32;8.70;99.90
18041;DHT22;9145;48.588;9.250;2023-02-28T13:40:22;8.60;99.90
18041;DHT22;9145;48.588;9.250;2023-02-28T13:42:52;8.70;99.90
18041;DHT22;9145;48.588;9.250;2023-02-28T13:45:27;9.20;99.90
18041;DHT22;9145;48.588;9.250;2023-02-28T13:47:59;9.30;99.90
18041;DHT22;9145;48.588;9.250;2023-02-28T13:50:34;9.40;99.90
18041;DHT22;9145;48.588;9.250;2023-02-28T13:56:03;9.40;99.90
18041;DHT22;9145;48.588;9.250;2023-02-28T13:58:42;9.40;99.90
18041;DHT22;9145;48.588;9.250;2023-02-28T14:01:36;9.50;99.90
18041;DHT22;9145;48.588;9.250;2023-02-28T14:04:29;9.60;99.90
18041;DHT22;9145;48.588;9.250;2023-02-28T14:07:02;9.80;99.90
18041;DHT22;9145;48.588;9.250;2023-02-28T14:09:32;9.90;99.90
18041;DHT22;9145;48.588;9.250;2023-02-28T14:14:59;10.00;99.90
18041;DHT22;9145;48.588;9.250;2023-02-28T14:17:26;10.30;99.90
18041;DHT22;9145;48.588;9.250;2023-02-28T14:19:53;10.20;99.30
18041;DHT22;9145;48.588;9.250;2023-02-28T14:22:43;10.10;99.90
18041;DHT22;9145;48.588;9.250;2023-02-28T14:25:23;10.30;99.90
18041;DHT22;9145;48.588;9.250;2023-02-28T14:28:04;10.20;99.60
18041;DHT22;9145;48.588;9.250;2023-02-28T14:30:56;10.30;99.90
18041;DHT22;9145;48.588;9.250;2023-02-28T14:33:32;10.60;99.70
18041;DHT22;9145;48.588;9.250;2023-02-28T14:36:07;11.10;99.90
18041;DHT22;9145;48.588;9.250;2023-02-28T14:38:42;11.20;99.40
18041;DHT22;9145;48.588;9.250;2023-02-28T14:41:20;11.30;99.20
18041;DHT22;9145;48.588;9.250;2023-02-28T14:43:53;11.50;99.50
18041;DHT22;9145;48.588;9.250;2023-02-28T14:46:22;11.60;99.20
18041;DHT22;9145;48.588;9.250;2023-02-28T14:48:50;11.70;98.70
18041;DHT22;9145;48.588;9.250;2023-02-28T14:51:21;11.90;97.70
18041;DHT22;9145;48.588;9.250;2023-02-28T14:53:56;11.80;97.80
18041;DHT22;9145;48.588;9.250;2023-02-28T14:56:26;12.10;98.70
18041;DHT22;9145;48.588;9.250;2023-02-28T14:58:55;12.00;97.90
18041;DHT22;9145;48.588;9.250;2023-02-28T15:01:24;11.80;97.20
18041;DHT22;9145;48.588;9.250;2023-02-28T15:04:02;11.90;97.60
18041;DHT22;9145;48.588;9.250;2023-02-28T15:06:30;12.20;97.60
18041;DHT22;9145;48.588;9.250;2023-02-28T15:09:14;12.40;97.00
18041;DHT22;9145;48.588;9.250;2023-02-28T15:11:41;12.70;96.70
18041;DHT22;9145;48.588;9.250;2023-02-28T15:14:17;12.60;96.70
18041;DHT22;9145;48.588;9.250;2023-02-28T15:16:47;12.60;96.60
18041;DHT22;9145;48.588;9.250;2023-02-28T15:19:20;12.90;96.30
18041;DHT22;9145;48.588;9.250;2023-02-28T15:21:50;13.10;95.90
18041;DHT22;9145;48.588;9.250;2023-02-28T15:24:21;13.00;95.80
18041;DHT22;9145;48.588;9.250;2023-02-28T15:26:53;12.60;95.70
18041;DHT22;9145;48.588;9.250;2023-02-28T15:29:23;11.90;95.80
18041;DHT22;9145;48.588;9.250;2023-02-28T15:31:56;11.40;96.40
18041;DHT22;9145;48.588;9.250;2023-02-28T15:34:28;11.10;97.70
18041;DHT22;9145;48.588;9.250;2023-02-28T15:36:56;11.30;98.10
18041;DHT22;9145;48.588;9.250;2023-02-28T15:39:26;11.60;96.90
18041;DHT22;9145;48.588;9.250;2023-02-28T15:42:11;12.00;96.00
18041;DHT22;9145;48.588;9.250;2023-02-28T15:44:38;12.00;96.30
18041;DHT22;9145;48.588;9.250;2023-02-28T15:47:06;12.00;96.00
18041;DHT22;9145;48.588;9.250;2023-02-28T15:49:40;12.10;96.20
18041;DHT22;9145;48.588;9.250;2023-02-28T15:52:15;12.30;95.60
18041;DHT22;9145;48.588;9.250;2023-02-28T15:54:44;12.10;95.80
18041;DHT22;9145;48.588;9.250;2023-02-28T15:57:17;12.20;96.10
18041;DHT22;9145;48.588;9.250;2023-02-28T15:59:50;12.30;96.00
18041;DHT22;9145;48.588;9.250;2023-02-28T16:02:19;12.20;95.30
18041;DHT22;9145;48.588;9.250;2023-02-28T16:05:02;12.00;95.60
18041;DHT22;9145;48.588;9.250;2023-02-28T16:07:40;12.00;96.10
18041;DHT22;9145;48.588;9.250;2023-02-28T16:10:11;11.90;95.40
18041;DHT22;9145;48.588;9.250;2023-02-28T16:12:40;11.70;95.70
18041;DHT22;9145;48.588;9.250;2023-02-28T16:15:09;11.70;95.90
18041;DHT22;9145;48.588;9.250;2023-02-28T16:17:43;11.70;95.80
18041;DHT22;9145;48.588;9.250;2023-02-28T16:20:13;11.90;96.20
18041;DHT22;9145;48.588;9.250;2023-02-28T16:22:41;12.00;95.70
18041;DHT22;9145;48.588;9.250;2023-02-28T16:25:11;11.80;95.60
18041;DHT22;9145;48.588;9.250;2023-02-28T16:27:38;11.60;95.90
18041;DHT22;9145;48.588;9.250;2023-02-28T16:30:06;11.40;95.70
18041;DHT22;9145;48.588;9.250;2023-02-28T16:32:35;11.30;95.70
18041;DHT22;9145;48.588;9.250;2023-02-28T16:35:02;11.10;96.10
18041;DHT22;9145;48.588;9.250;2023-02-28T16:37:29;10.90;96.00
18041;DHT22;9145;48.588;9.250;2023-02-28T16:39:56;10.70;96.60
18041;DHT22;9145;48.588;9.250;2023-02-28T16:42:26;10.50;96.20